Time;durP1;ratioP1;P1;durP2;ratioP2;P2;SDS_P1;SDS_P2;PMS_P1;PMS_P2;Temp;Humidity;BMP_temperature;BMP_pressure;BME280_temperature;BME280_humidity;BME280_pressure;Samples;Min_cycle;Max_cycle;Signal;HPM_P1;HPM_P2
2021/06/27 00:00:20;;;;;;;3.92;3.63;;;;;;;18.16;68.78;98770.88;5013519;28;20048;-64
2021/06/27 00:02:45;;;;;;;3.40;3.20;;;;;;;17.98;69.62;98769.97;5012533;28;20032;-64
2021/06/27 00:05:13;;;;;;;4.55;3.78;;;;;;;17.99;69.48;98763.84;5013256;28;20034;-63
2021/06/27 00:07:39;;;;;;;4.15;3.78;;;;;;;17.99;69.13;98773.41;5013903;28;20392;-65
2021/06/27 00:10:10;;;;;;;3.72;3.53;;;;;;;17.96;69.60;98781.31;5013318;28;20321;-64
2021/06/27 00:12:36;;;;;;;3.72;3.42;;;;;;;17.85;69.99;98773.22;5013483;28;20033;-64
2021/06/27 00:15:05;;;;;;;4.75;4.35;;;;;;;17.76;70.64;98767.53;5015366;28;20026;-64
2021/06/27 00:17:31;;;;;;;4.72;4.43;;;;;;;17.68;70.82;98781.75;5012277;28;20473;-64
2021/06/27 00:19:56;;;;;;;3.95;3.72;;;;;;;17.62;71.33;98782.88;5010043;28;20057;-64
2021/06/27 00:22:21;;;;;;;4.40;4.10;;;;;;;17.58;71.52;98783.91;5012296;28;20030;-64
2021/06/27 00:24:47;;;;;;;4.18;3.88;;;;;;;17.61;70.88;98785.53;5013142;28;20370;-63
2021/06/27 00:27:12;;;;;;;4.75;4.35;;;;;;;17.59;71.06;98790.78;5012626;28;20544;-63
2021/06/27 00:29:38;;;;;;;3.95;3.35;;;;;;;17.65;70.67;98789.69;5013290;28;20034;-64
2021/06/27 00:32:04;;;;;;;4.20;3.90;;;;;;;17.60;70.89;98778.66;5013582;28;20040;-63
2021/06/27 00:34:29;;;;;;;4.25;3.85;;;;;;;17.53;71.18;98787.59;5014539;28;20256;-63
2021/06/27 00:36:54;;;;;;;4.18;3.80;;;;;;;17.48;71.48;98789.56;5011931;28;20045;-63
2021/06/27 00:39:20;;;;;;;4.30;3.90;;;;;;;17.47;71.13;98787.88;5012405;28;20044;-63
2021/06/27 00:41:45;;;;;;;3.33;3.13;;;;;;;17.44;71.42;98785.41;5012938;28;20033;-64
2021/06/27 00:44:11;;;;;;;3.97;3.67;;;;;;;17.58;70.94;98789.09;5010421;28;20092;-63
2021/06/27 00:46:36;;;;;;;3.65;3.35;;;;;;;17.53;71.04;98783.25;5013690;28;20457;-63
2021/06/27 00:49:02;;;;;;;4.30;3.38;;;;;;;17.56;70.85;98779.69;5013711;28;20060;-63
2021/06/27 00:51:27;;;;;;;4.47;4.07;;;;;;;17.56;70.85;98772.75;5015380;28;20291;-64
2021/06/27 00:53:52;;;;;;;4.63;4.32;;;;;;;17.47;71.22;98780.94;5014474;28;20115;-63
2021/06/27 00:56:18;;;;;;;5.30;3.95;;;;;;;17.32;71.78;98771.22;5014825;28;20057;-63
2021/06/27 00:58:44;;;;;;;4.50;4.18;;;;;;;17.38;71.68;98763.19;5014493;28;20060;-64
2021/06/27 01:01:10;;;;;;;3.88;3.55;;;;;;;17.38;71.71;98759.75;5014824;28;20026;-64
2021/06/27 01:03:36;;;;;;;4.32;4.03;;;;;;;17.41;71.51;98755.28;5014812;28;20026;-64
2021/06/27 01:06:02;;;;;;;3.45;3.15;;;;;;;17.36;71.47;98749.44;5013649;28;20115;-64
2021/06/27 01:08:28;;;;;;;3.70;3.40;;;;;;;17.35;71.61;98748.59;5013022;28;20706;-64
2021/06/27 01:10:54;;;;;;;4.63;4.05;;;;;;;17.34;71.69;98751.28;5015718;28;20041;-64
2021/06/27 01:13:22;;;;;;;5.88;3.55;;;;;;;17.39;71.77;98743.31;5012954;28;20369;-64
2021/06/27 01:15:49;;;;;;;4.45;4.00;;;;;;;17.41;71.44;98755.28;5013026;28;20049;-64
2021/06/27 01:18:15;;;;;;;4.80;4.38;;;;;;;17.34;71.57;98746.94;5013968;28;20442;-64
2021/06/27 01:20:41;;;;;;;4.78;4.38;;;;;;;17.35;71.91;98753.78;5015060;28;20307;-64
2021/06/27 01:23:11;;;;;;;3.75;3.45;;;;;;;17.39;71.92;98754.53;5011241;28;20112;-64
2021/06/27 01:25:39;;;;;;;3.70;3.38;;;;;;;17.31;72.17;98749.66;5014811;28;20326;-63
2021/06/27 01:28:05;;;;;;;4.10;3.80;;;;;;;17.30;72.51;98752.34;5015505;28;20029;-64
2021/06/27 01:30:32;;;;;;;3.92;3.63;;;;;;;17.27;72.41;98753.28;5013375;28;20037;-64
2021/06/27 01:33:02;;;;;;;3.70;3.40;;;;;;;17.31;72.42;98748.84;5013390;28;20057;-63
2021/06/27 01:35:28;;;;;;;4.57;4.20;;;;;;;17.24;72.59;98750.84;5012277;28;20038;-64
2021/06/27 01:37:56;;;;;;;4.43;4.10;;;;;;;17.30;72.52;98753.19;5012938;28;20030;-64
2021/06/27 01:40:25;;;;;;;3.92;3.63;;;;;;;17.25;72.71;98736.13;5011910;28;20095;-64
2021/06/27 01:42:52;;;;;;;4.90;4.40;;;;;;;17.21;72.79;98743.22;5013312;28;20033;-64
2021/06/27 01:45:21;;;;;;;4.75;4.35;;;;;;;17.26;72.71;98737.81;5011793;28;20030;-64
2021/06/27 01:48:02;;;;;;;4.00;3.70;;;;;;;17.41;71.83;98736.28;5012883;28;20034;-63
2021/06/27 01:50:28;;;;;;;5.95;4.13;;;;;;;17.32;72.09;98740.13;5011905;28;20040;-63
2021/06/27 01:52:55;;;;;;;4.72;4.32;;;;;;;17.28;72.41;98741.19;5011721;28;20040;-63
2021/06/27 01:55:23;;;;;;;4.25;3.85;;;;;;;17.23;72.68;98743.97;5012314;28;20034;-64
2021/06/27 01:57:49;;;;;;;4.45;4.15;;;;;;;17.24;73.31;98743.06;5012980;28;20030;-64
2021/06/27 02:00:15;;;;;;;4.10;3.80;;;;;;;17.20;73.67;98738.94;5011412;28;20037;-63
2021/06/27 02:02:41;;;;;;;3.92;3.55;;;;;;;17.19;73.40;98734.66;5013807;28;20056;-63
2021/06/27 02:05:09;;;;;;;4.03;3.65;;;;;;;17.22;72.83;98737.13;5014555;28;20379;-63
2021/06/27 02:07:39;;;;;;;4.32;4.03;;;;;;;17.36;71.67;98739.09;5013271;28;20065;-63
2021/06/27 02:10:10;;;;;;;3.60;3.35;;;;;;;17.32;71.72;98732.34;5011454;28;20038;-62
2021/06/27 02:12:35;;;;;;;4.25;3.95;;;;;;;17.29;71.71;98730.75;5002187;28;20048;-63
2021/06/27 02:15:01;;;;;;;4.28;3.97;;;;;;;17.37;71.40;98733.00;5011978;28;20386;-63
2021/06/27 02:17:27;;;;;;;4.13;3.83;;;;;;;17.29;71.51;98729.91;5016956;28;20034;-64
2021/06/27 02:19:54;;;;;;;3.72;3.42;;;;;;;17.31;72.07;98730.69;5015201;28;20054;-63
2021/06/27 02:22:21;;;;;;;5.22;4.32;;;;;;;17.32;71.52;98722.84;5017070;28;20065;-64
2021/06/27 02:24:47;;;;;;;4.10;3.70;;;;;;;17.26;71.71;98725.72;5015964;28;20033;-63
2021/06/27 02:27:12;;;;;;;4.13;3.67;;;;;;;17.18;71.98;98727.81;5016082;28;20430;-64
2021/06/27 02:29:38;;;;;;;4.60;4.20;;;;;;;17.10;72.37;98729.06;5015576;28;20413;-63
2021/06/27 02:32:05;;;;;;;4.95;4.53;;;;;;;17.04;73.34;98724.13;5015461;28;20030;-63
2021/06/27 02:34:30;;;;;;;5.15;4.18;;;;;;;16.97;73.55;98723.56;5013884;28;20088;-65
2021/06/27 02:36:56;;;;;;;4.50;4.20;;;;;;;16.92;73.32;98722.91;5015490;28;20333;-64
2021/06/27 02:39:21;;;;;;;4.35;3.95;;;;;;;16.85;74.13;98727.50;5015235;28;20036;-63
2021/06/27 02:41:47;;;;;;;4.05;3.70;;;;;;;16.77;73.93;98718.38;5015749;28;20033;-66
2021/06/27 02:44:12;;;;;;;3.95;3.65;;;;;;;16.84;73.53;98725.00;5015190;28;20391;-63
2021/06/27 02:46:38;;;;;;;4.07;3.78;;;;;;;16.79;73.53;98721.75;5015899;28;20048;-63
2021/06/27 02:49:04;;;;;;;5.63;4.38;;;;;;;16.75;73.62;98717.63;5015202;28;20061;-63
2021/06/27 02:51:29;;;;;;;4.35;4.05;;;;;;;16.75;73.24;98717.63;5015272;28;20704;-63
2021/06/27 02:53:55;;;;;;;4.07;3.78;;;;;;;16.72;73.91;98717.75;5016488;28;20034;-63
2021/06/27 02:56:20;;;;;;;4.07;3.78;;;;;;;16.64;74.27;98722.38;5014888;28;20458;-63
2021/06/27 02:58:47;;;;;;;4.80;4.40;;;;;;;16.65;74.62;98718.91;5015387;28;20034;-63
2021/06/27 03:01:15;;;;;;;4.50;4.10;;;;;;;16.62;74.89;98725.06;5014967;28;20398;-63
2021/06/27 03:03:43;;;;;;;5.15;4.75;;;;;;;16.53;75.37;98719.38;5015138;28;20088;-63
2021/06/27 03:06:09;;;;;;;5.15;4.28;;;;;;;16.46;76.14;98721.41;5015240;28;20045;-63
2021/06/27 03:08:35;;;;;;;4.97;4.57;;;;;;;16.44;76.44;98721.44;5013517;28;20037;-64
2021/06/27 03:11:01;;;;;;;4.18;3.88;;;;;;;16.43;76.16;98727.53;5013708;28;20030;-64
2021/06/27 03:13:27;;;;;;;4.25;3.63;;;;;;;16.40;76.34;98724.22;5013682;28;20279;-63
2021/06/27 03:15:53;;;;;;;4.28;3.95;;;;;;;16.39;75.96;98725.97;5015308;28;20040;-64
2021/06/27 03:18:19;;;;;;;4.82;4.45;;;;;;;16.40;75.47;98726.81;5013104;28;20406;-63
2021/06/27 03:20:44;;;;;;;4.53;4.13;;;;;;;16.47;74.71;98720.47;5013873;28;20318;-63
2021/06/27 03:23:10;;;;;;;4.70;4.25;;;;;;;16.48;75.58;98729.91;5014262;28;20072;-64
2021/06/27 03:25:37;;;;;;;4.43;4.05;;;;;;;16.41;76.16;98726.75;5014017;28;20572;-63
2021/06/27 03:28:03;;;;;;;5.10;4.07;;;;;;;16.43;75.51;98724.09;5014633;28;20042;-63
2021/06/27 03:30:29;;;;;;;4.45;4.05;;;;;;;16.46;75.75;98726.56;5014844;28;20078;-63
2021/06/27 03:32:55;;;;;;;4.15;3.85;;;;;;;16.49;75.17;98721.25;5014879;28;20041;-63
2021/06/27 03:35:20;;;;;;;4.57;4.28;;;;;;;16.49;75.62;98721.25;5014979;28;20367;-63
2021/06/27 03:40:34;;;;;;;5.22;4.32;;;;;;;16.67;74.63;98720.53;4951752;29;20440;-63
2021/06/27 03:43:01;;;;;;;4.63;4.22;;;;;;;16.81;73.35;98722.50;4952696;29;20039;-63
2021/06/27 03:45:28;;;;;;;4.65;4.28;;;;;;;16.90;73.38;98724.72;4950292;29;20043;-63
2021/06/27 03:47:53;;;;;;;4.88;4.25;;;;;;;16.94;73.18;98725.41;4951484;29;20159;-63
2021/06/27 03:50:19;;;;;;;5.07;4.68;;;;;;;17.04;72.71;98734.47;4935215;29;20157;-63
2021/06/27 03:52:46;;;;;;;4.43;3.95;;;;;;;17.21;72.38;98737.19;4952435;29;20132;-63
2021/06/27 03:55:12;;;;;;;4.75;4.45;;;;;;;17.12;72.84;98733.25;4934842;29;20027;-63
2021/06/27 03:57:38;;;;;;;4.88;4.53;;;;;;;17.15;72.91;98733.09;4952781;29;20055;-63
2021/06/27 04:00:08;;;;;;;4.68;3.75;;;;;;;17.38;72.44;98731.25;4934801;29;20031;-63
2021/06/27 04:02:33;;;;;;;5.15;4.75;;;;;;;17.49;71.65;98737.63;4950685;29;20039;-64
2021/06/27 04:04:59;;;;;;;4.53;4.00;;;;;;;17.69;70.87;98732.44;4951044;29;20136;-62
2021/06/27 04:07:24;;;;;;;5.13;3.78;;;;;;;17.78;71.36;98733.72;4952540;29;20079;-63
2021/06/27 04:09:49;;;;;;;4.40;4.10;;;;;;;17.95;70.88;98741.56;4951636;29;20039;-63
2021/06/27 04:12:15;;;;;;;4.07;3.78;;;;;;;18.04;70.07;98737.69;4950203;29;20147;-63
2021/06/27 04:14:40;;;;;;;4.15;3.85;;;;;;;18.14;68.94;98726.81;4952250;29;20041;-63
2021/06/27 04:17:06;;;;;;;4.82;4.43;;;;;;;18.27;68.10;98730.50;4969896;28;20398;-63
2021/06/27 04:19:31;;;;;;;4.20;3.80;;;;;;;18.35;68.40;98731.88;5014026;28;20390;-63
2021/06/27 04:21:57;;;;;;;5.00;4.50;;;;;;;18.37;68.23;98738.69;5014065;28;20025;-63
2021/06/27 04:24:22;;;;;;;3.97;3.67;;;;;;;18.21;68.73;98735.13;5016449;28;20033;-63
2021/06/27 04:26:48;;;;;;;3.97;3.67;;;;;;;18.23;69.09;98748.91;5013548;28;20120;-69
2021/06/27 04:29:14;;;;;;;4.22;3.83;;;;;;;18.25;68.91;98745.31;5013978;28;20037;-69
2021/06/27 04:31:41;;;;;;;4.78;4.30;;;;;;;18.35;68.71;98750.06;5011528;28;20109;-69
2021/06/27 04:34:07;;;;;;;4.65;4.28;;;;;;;18.46;68.80;98745.19;5014754;28;20117;-70
2021/06/27 04:36:33;;;;;;;4.72;4.32;;;;;;;18.69;68.09;98750.97;5012141;28;20072;-70
2021/06/27 04:38:59;;;;;;;4.13;3.72;;;;;;;18.87;67.94;98746.59;5013039;28;20374;-69
2021/06/27 04:41:24;;;;;;;5.00;4.40;;;;;;;18.99;67.85;98745.97;5013333;28;20033;-69
2021/06/27 04:43:49;;;;;;;4.50;4.20;;;;;;;19.10;66.97;98741.06;5012373;28;20501;-69
2021/06/27 04:46:17;;;;;;;5.25;4.55;;;;;;;19.20;66.38;98748.38;5015359;28;20026;-68
2021/06/27 04:48:42;;;;;;;4.35;4.05;;;;;;;19.43;65.98;98745.47;5013566;28;20069;-69
2021/06/27 04:51:08;;;;;;;4.82;4.45;;;;;;;19.68;65.03;98745.81;5014443;28;20111;-69
2021/06/27 04:53:33;;;;;;;5.03;4.63;;;;;;;19.75;65.24;98743.72;5015562;28;20044;-69
2021/06/27 04:55:59;;;;;;;4.47;4.18;;;;;;;19.77;64.20;98745.34;5014165;28;20036;-69
2021/06/27 04:58:25;;;;;;;4.38;4.07;;;;;;;19.93;64.62;98748.78;5011252;28;20041;-69
2021/06/27 05:00:51;;;;;;;5.28;4.88;;;;;;;20.18;64.03;98750.00;5011153;28;20415;-69
2021/06/27 05:03:16;;;;;;;4.10;3.80;;;;;;;20.29;62.63;98743.28;5014822;28;20394;-68
2021/06/27 05:05:42;;;;;;;4.60;4.30;;;;;;;20.49;62.87;98748.25;5013189;28;20037;-69
2021/06/27 05:08:07;;;;;;;4.40;4.10;;;;;;;20.78;62.10;98745.69;5013392;28;20034;-68
2021/06/27 05:10:33;;;;;;;4.88;4.47;;;;;;;20.87;62.72;98740.78;5012383;28;20122;-68
2021/06/27 05:12:58;;;;;;;5.28;4.75;;;;;;;20.96;62.21;98735.00;5013177;28;20037;-69
2021/06/27 05:15:24;;;;;;;4.70;4.40;;;;;;;21.29;60.29;98740.03;5014295;28;20029;-69
2021/06/27 05:17:49;;;;;;;4.70;4.40;;;;;;;21.29;59.73;98742.63;5013496;28;20383;-69
2021/06/27 05:20:14;;;;;;;4.43;4.13;;;;;;;21.12;60.50;98748.03;5014453;28;20050;-68
2021/06/27 05:22:40;;;;;;;4.60;4.30;;;;;;;21.26;60.76;98747.22;5012291;28;20307;-69
2021/06/27 05:25:06;;;;;;;3.97;3.67;;;;;;;21.34;61.02;98747.56;5013477;28;20026;-68
2021/06/27 05:27:32;;;;;;;5.03;4.55;;;;;;;21.49;59.63;98749.22;5013184;28;20267;-69
2021/06/27 05:29:57;;;;;;;4.88;4.55;;;;;;;21.37;59.39;98739.56;5011775;28;20064;-69
2021/06/27 05:32:23;;;;;;;5.43;5.00;;;;;;;21.42;58.96;98737.50;5012621;28;20054;-70
2021/06/27 05:34:48;;;;;;;5.07;4.57;;;;;;;21.33;59.52;98743.28;5011267;28;20469;-70
2021/06/27 05:37:14;;;;;;;5.35;4.95;;;;;;;21.51;59.45;98731.72;5012605;28;20061;-70
2021/06/27 05:39:39;;;;;;;5.63;5.13;;;;;;;21.22;60.27;98722.22;5014016;28;20061;-70
2021/06/27 05:42:06;;;;;;;5.28;4.82;;;;;;;21.46;59.83;98728.56;5011837;28;20045;-70
2021/06/27 05:44:31;;;;;;;6.30;5.80;;;;;;;21.45;60.36;98737.31;5011957;28;20022;-69
2021/06/27 05:46:56;;;;;;;6.50;5.90;;;;;;;21.45;59.57;98737.31;5013612;28;20037;-70
2021/06/27 05:49:22;;;;;;;5.82;5.32;;;;;;;21.78;59.04;98744.81;5012447;28;20043;-70
2021/06/27 05:51:47;;;;;;;6.28;5.72;;;;;;;21.87;59.13;98739.03;5015884;28;20033;-70
2021/06/27 05:54:13;;;;;;;7.25;6.55;;;;;;;21.83;58.57;98741.00;5017595;28;20386;-69
2021/06/27 05:56:38;;;;;;;6.50;6.00;;;;;;;22.01;58.19;98738.19;5015731;28;20374;-68
2021/06/27 05:59:05;;;;;;;8.38;7.57;;;;;;;22.14;56.62;98731.25;5018447;28;20030;-69
2021/06/27 06:01:30;;;;;;;7.57;6.97;;;;;;;22.12;57.09;98739.16;5016010;28;20026;-70
2021/06/27 06:03:56;;;;;;;8.02;7.30;;;;;;;22.39;55.82;98731.34;5014730;28;20025;-69
2021/06/27 06:06:21;;;;;;;6.88;6.28;;;;;;;22.54;55.86;98729.47;5017391;28;20457;-69
2021/06/27 06:08:46;;;;;;;7.60;6.78;;;;;;;22.71;55.53;98730.06;5015945;28;20029;-69
2021/06/27 06:11:14;;;;;;;8.48;6.80;;;;;;;22.98;55.00;98727.38;5017165;28;20029;-69
2021/06/27 06:13:41;;;;;;;7.35;6.65;;;;;;;23.01;54.77;98731.56;5017680;28;20040;-68
2021/06/27 06:16:07;;;;;;;6.22;5.63;;;;;;;23.06;54.93;98732.09;5016791;28;20363;-69
2021/06/27 06:18:34;;;;;;;8.30;7.60;;;;;;;22.83;55.18;98724.97;5014843;28;20051;-69
2021/06/27 06:20:59;;;;;;;7.90;7.20;;;;;;;22.85;55.37;98728.31;5017152;28;20136;-69
2021/06/27 06:23:26;;;;;;;7.50;6.80;;;;;;;23.04;55.01;98726.13;5014695;28;20113;-69
2021/06/27 06:25:53;;;;;;;7.80;6.13;;;;;;;23.25;54.25;98727.28;5018500;28;20038;-69
2021/06/27 06:28:18;;;;;;;7.20;6.57;;;;;;;23.21;53.74;98725.81;5003833;28;20041;-69
2021/06/27 06:30:44;;;;;;;10.20;7.38;;;;;;;23.34;53.70;98726.63;5013260;28;20323;-69
2021/06/27 06:33:12;;;;;;;7.82;7.03;;;;;;;23.41;53.96;98734.91;5016128;28;20074;-68
2021/06/27 06:35:39;;;;;;;10.95;6.95;;;;;;;23.49;53.69;98730.00;5017478;28;20194;-69
2021/06/27 06:38:05;;;;;;;7.40;6.65;;;;;;;23.62;53.36;98721.19;5015281;28;20029;-69
2021/06/27 06:40:31;;;;;;;7.57;6.93;;;;;;;23.57;53.15;98725.06;5014848;28;20109;-69
2021/06/27 06:42:56;;;;;;;7.78;7.18;;;;;;;23.75;53.44;98722.94;5015538;28;20037;-69
2021/06/27 06:45:22;;;;;;;7.93;7.13;;;;;;;24.00;52.34;98725.47;5013733;28;20426;-69
2021/06/27 06:47:47;;;;;;;7.60;5.97;;;;;;;24.35;51.32;98731.63;5017442;28;20040;-69
2021/06/27 06:50:12;;;;;;;7.22;6.53;;;;;;;24.43;50.69;98731.06;5014180;28;20050;-69
2021/06/27 06:52:38;;;;;;;6.50;5.93;;;;;;;24.56;50.76;98732.69;5018421;28;20034;-68
2021/06/27 06:55:04;;;;;;;7.20;6.60;;;;;;;24.70;50.63;98736.88;5014394;28;20496;-67
2021/06/27 06:57:29;;;;;;;7.38;6.45;;;;;;;24.79;50.28;98733.56;5015730;28;20240;-68
2021/06/27 06:59:55;;;;;;;9.30;8.40;;;;;;;24.84;50.60;98735.84;5016453;28;20033;-69
2021/06/27 07:02:20;;;;;;;7.80;7.10;;;;;;;24.87;50.35;98735.63;5016678;28;20033;-69
2021/06/27 07:04:45;;;;;;;12.48;7.97;;;;;;;24.68;50.16;98735.31;5013107;28;20030;-69
2021/06/27 07:07:11;;;;;;;9.15;8.32;;;;;;;24.33;50.70;98732.69;5016579;28;20516;-69
2021/06/27 07:09:36;;;;;;;8.13;7.43;;;;;;;24.41;50.31;98735.56;5014755;28;20112;-68
2021/06/27 07:12:02;;;;;;;8.07;7.28;;;;;;;24.72;50.27;98744.63;5014477;28;20112;-68
2021/06/27 07:14:27;;;;;;;8.85;8.02;;;;;;;24.96;50.60;98740.19;5013505;28;20029;-69
2021/06/27 07:16:52;;;;;;;8.10;7.45;;;;;;;25.01;48.58;98743.28;5013509;28;20387;-70
2021/06/27 07:19:18;;;;;;;7.03;6.47;;;;;;;24.39;49.84;98730.47;5016754;28;20021;-69
2021/06/27 07:21:45;;;;;;;8.63;7.88;;;;;;;24.53;50.14;98738.13;5013648;28;20860;-69
2021/06/27 07:24:11;;;;;;;7.88;7.13;;;;;;;24.68;49.84;98732.69;5015055;28;20064;-69
2021/06/27 07:26:36;;;;;;;8.65;7.95;;;;;;;24.68;50.37;98732.69;5013926;28;20069;-69
2021/06/27 07:29:02;;;;;;;8.82;8.10;;;;;;;24.03;51.72;98733.94;5014078;28;20375;-69
2021/06/27 07:31:27;;;;;;;7.57;6.50;;;;;;;24.37;50.83;98734.97;5014845;28;20056;-69
2021/06/27 07:33:52;;;;;;;7.88;7.18;;;;;;;24.43;50.41;98733.69;5013466;28;20322;-69
2021/06/27 07:36:18;;;;;;;8.13;7.43;;;;;;;24.66;49.85;98731.97;5013329;28;20060;-69
2021/06/27 07:38:43;;;;;;;9.00;7.53;;;;;;;24.89;50.34;98734.56;5014865;28;20033;-68
2021/06/27 07:41:08;;;;;;;7.28;6.57;;;;;;;24.95;50.14;98730.66;5013640;28;20315;-69
2021/06/27 07:43:35;;;;;;;7.18;6.65;;;;;;;25.04;49.59;98726.50;5014673;28;20036;-69
2021/06/27 07:46:00;;;;;;;7.32;6.70;;;;;;;25.07;48.58;98724.47;5013749;28;20029;-69
2021/06/27 07:48:26;;;;;;;8.48;7.55;;;;;;;25.20;48.19;98730.47;5013899;28;20616;-68
2021/06/27 07:50:51;;;;;;;8.30;7.70;;;;;;;25.24;48.51;98731.88;5013655;28;20389;-70
2021/06/27 07:53:17;;;;;;;9.00;8.13;;;;;;;25.19;49.53;98723.53;5015479;28;20030;-69
2021/06/27 07:55:43;;;;;;;7.03;6.45;;;;;;;25.00;47.78;98723.25;5012737;28;20052;-69
2021/06/27 07:58:08;;;;;;;9.10;7.82;;;;;;;24.95;47.42;98720.97;5015812;28;20029;-68
2021/06/27 08:00:34;;;;;;;8.07;7.47;;;;;;;25.02;47.89;98716.97;5013868;28;20076;-70
2021/06/27 08:03:00;;;;;;;8.52;7.93;;;;;;;25.20;48.39;98719.97;5014999;28;20560;-69
2021/06/27 08:05:26;;;;;;;7.70;7.03;;;;;;;25.43;48.18;98719.00;5012015;28;20030;-69
2021/06/27 08:07:51;;;;;;;6.97;6.38;;;;;;;25.60;47.58;98727.38;5016014;28;20051;-69
2021/06/27 08:10:17;;;;;;;7.28;6.57;;;;;;;25.48;46.57;98723.88;5011804;28;20080;-69
2021/06/27 08:12:42;;;;;;;7.55;7.05;;;;;;;25.70;47.35;98713.41;5011533;28;20152;-69
2021/06/27 08:15:10;;;;;;;7.32;6.72;;;;;;;25.83;47.44;98716.72;5010932;28;20035;-69
2021/06/27 08:17:36;;;;;;;7.72;7.03;;;;;;;25.92;45.42;98717.78;5010312;28;20375;-69
2021/06/27 08:20:04;;;;;;;15.27;13.20;;;;;;;25.99;47.22;98713.69;5012687;28;20081;-69
2021/06/27 08:22:29;;;;;;;6.82;6.22;;;;;;;26.04;45.84;98713.31;5010686;28;20064;-69
2021/06/27 08:24:55;;;;;;;7.50;6.90;;;;;;;26.12;45.67;98703.03;5013569;28;20338;-68
2021/06/27 08:27:20;;;;;;;7.13;6.53;;;;;;;26.03;43.63;98701.13;5012321;28;20435;-69
2021/06/27 08:29:46;;;;;;;5.60;5.20;;;;;;;26.08;43.78;98697.19;5013375;28;20044;-68
2021/06/27 08:32:11;;;;;;;7.00;6.50;;;;;;;26.30;43.43;98696.31;5012468;28;20029;-68
2021/06/27 08:34:37;;;;;;;6.65;6.15;;;;;;;26.28;42.87;98695.56;5012408;28;20052;-68
2021/06/27 08:37:03;;;;;;;7.00;6.50;;;;;;;26.17;42.04;98696.44;5014807;28;20149;-69
2021/06/27 08:39:28;;;;;;;6.30;5.68;;;;;;;25.83;41.46;98697.50;5013259;28;20153;-69
2021/06/27 08:41:54;;;;;;;6.63;6.13;;;;;;;26.03;42.56;98693.25;5014387;28;20053;-69
2021/06/27 08:44:20;;;;;;;6.93;6.43;;;;;;;26.24;42.58;98691.53;5015384;28;20037;-69
2021/06/27 08:46:48;;;;;;;6.00;5.50;;;;;;;26.53;43.56;98689.97;5016114;28;20492;-69
2021/06/27 08:49:14;;;;;;;6.90;6.30;;;;;;;26.37;43.21;98686.94;5012344;28;20025;-68
2021/06/27 08:51:40;;;;;;;6.10;5.60;;;;;;;26.53;42.07;98691.75;5013522;28;20037;-68
2021/06/27 08:54:10;;;;;;;5.50;5.10;;;;;;;26.51;40.91;98689.28;5014567;28;20275;-68
2021/06/27 08:56:36;;;;;;;5.63;5.20;;;;;;;26.64;41.58;98683.81;5012884;28;20394;-69
2021/06/27 08:59:02;;;;;;;6.80;6.07;;;;;;;26.72;41.95;98673.50;5014024;28;20025;-69
2021/06/27 09:01:28;;;;;;;6.20;5.80;;;;;;;26.80;42.26;98689.47;5013772;28;20040;-69
2021/06/27 09:03:56;;;;;;;6.88;6.28;;;;;;;26.87;41.96;98682.72;5012129;28;20275;-69
2021/06/27 09:06:33;;;;;;;6.57;5.97;;;;;;;26.97;40.60;98685.44;5014446;28;20021;-69
2021/06/27 09:09:22;;;;;;;6.45;5.95;;;;;;;26.68;39.33;98686.06;5013155;28;20045;-69
2021/06/27 09:12:11;;;;;;;5.93;5.55;;;;;;;26.74;40.03;98688.16;5013001;28;20276;-69
2021/06/27 09:14:41;;;;;;;6.28;5.65;;;;;;;26.66;39.85;98677.47;5013092;28;20038;-69
2021/06/27 09:17:19;;;;;;;6.28;5.78;;;;;;;26.51;41.20;98683.19;5013795;28;20123;-69
2021/06/27 09:20:05;;;;;;;6.35;5.95;;;;;;;26.55;40.27;98681.97;5011993;28;20277;-68
2021/06/27 09:22:41;;;;;;;6.00;5.60;;;;;;;26.60;41.39;98687.66;5012368;28;20108;-68
2021/06/27 09:25:19;;;;;;;6.05;5.65;;;;;;;26.78;41.55;98683.47;5014835;28;20051;-68
2021/06/27 09:27:46;;;;;;;6.20;5.70;;;;;;;26.98;40.80;98682.69;5016021;28;20315;-68
2021/06/27 09:30:13;;;;;;;5.90;5.50;;;;;;;26.91;41.22;98681.50;5016375;28;20499;-68
2021/06/27 09:32:51;;;;;;;7.15;6.55;;;;;;;26.70;41.57;98672.75;5015661;28;20048;-69
2021/06/27 09:35:43;;;;;;;7.72;6.65;;;;;;;26.58;41.84;98671.16;5016943;28;20414;-69
2021/06/27 09:38:23;;;;;;;8.13;7.47;;;;;;;26.76;41.46;98673.09;5017166;28;20029;-69
2021/06/27 09:40:50;;;;;;;6.50;6.10;;;;;;;26.60;40.72;98672.72;5018255;28;20034;-69
2021/06/27 09:43:17;;;;;;;6.85;6.25;;;;;;;26.88;40.17;98678.31;5015538;28;20038;-68
2021/06/27 09:45:54;;;;;;;6.18;5.75;;;;;;;26.81;39.96;98670.91;5018050;28;20041;-69
2021/06/27 09:48:19;;;;;;;7.07;6.60;;;;;;;26.68;41.00;98672.91;5014797;28;20121;-69
2021/06/27 09:50:45;;;;;;;6.43;5.93;;;;;;;26.87;40.46;98658.22;5015889;28;20041;-69
2021/06/27 09:53:45;;;;;;;7.72;7.10;;;;;;;26.90;39.88;98664.06;5016475;28;20067;-69
2021/06/27 09:56:11;;;;;;;6.40;6.00;;;;;;;26.90;39.90;98660.59;5010162;28;20045;-69
2021/06/27 09:58:37;;;;;;;7.32;6.43;;;;;;;27.10;39.75;98665.00;5019080;28;20025;-70
2021/06/27 10:01:18;;;;;;;5.82;5.32;;;;;;;26.93;39.95;98655.91;5015267;28;20038;-69
2021/06/27 10:03:50;;;;;;;6.20;5.65;;;;;;;27.07;39.74;98666.09;5015495;28;20026;-68
2021/06/27 10:06:16;;;;;;;6.05;5.55;;;;;;;27.52;40.69;98665.72;5017314;28;20026;-69
2021/06/27 10:08:41;;;;;;;5.70;5.30;;;;;;;27.84;42.13;98657.63;5016228;28;20667;-69
2021/06/27 10:11:17;;;;;;;4.93;4.63;;;;;;;28.24;39.29;98663.63;5016329;28;20354;-69
2021/06/27 10:13:52;;;;;;;5.90;5.40;;;;;;;28.25;37.36;98659.19;5016537;28;20113;-69
2021/06/27 10:16:26;;;;;;;6.07;5.57;;;;;;;28.38;38.28;98665.03;5015807;28;20190;-69
2021/06/27 10:18:53;;;;;;;6.07;5.68;;;;;;;27.60;37.86;98657.97;5015264;28;20025;-68
2021/06/27 10:21:19;;;;;;;5.97;5.47;;;;;;;27.66;38.16;98658.28;5013738;28;20053;-69
2021/06/27 10:23:46;;;;;;;12.38;6.38;;;;;;;27.81;38.09;98655.25;5016182;28;20290;-69
2021/06/27 10:26:14;;;;;;;5.85;5.32;;;;;;;27.99;37.04;98656.25;5016872;28;20455;-69
2021/06/27 10:28:40;;;;;;;6.82;4.90;;;;;;;28.31;39.59;98661.25;5015467;28;20034;-69
2021/06/27 10:31:06;;;;;;;4.10;3.90;;;;;;;28.50;37.62;98661.25;5014807;28;20060;-69
2021/06/27 10:33:31;;;;;;;5.75;5.32;;;;;;;28.72;37.05;98662.78;5015883;28;20037;-69
2021/06/27 10:35:58;;;;;;;6.22;5.63;;;;;;;28.74;37.58;98658.19;5016126;28;20512;-69
2021/06/27 10:38:28;;;;;;;5.55;5.15;;;;;;;28.58;35.60;98656.09;5018368;28;20578;-69
2021/06/27 10:40:58;;;;;;;5.57;5.20;;;;;;;28.87;35.57;98664.81;5014662;28;20064;-68
2021/06/27 10:43:25;;;;;;;5.07;4.78;;;;;;;28.76;36.08;98654.44;5015349;28;20037;-69
2021/06/27 10:45:51;;;;;;;5.13;4.82;;;;;;;28.59;35.35;98653.34;5015979;28;20037;-68
2021/06/27 10:48:38;;;;;;;5.03;4.63;;;;;;;28.62;35.07;98644.28;5015089;28;20043;-68
2021/06/27 10:51:06;;;;;;;5.45;5.05;;;;;;;28.47;35.10;98637.81;5016202;28;20295;-69
2021/06/27 10:54:11;;;;;;;5.18;4.78;;;;;;;28.57;35.54;98644.72;5013972;28;20072;-69
2021/06/27 10:56:53;;;;;;;5.90;5.05;;;;;;;28.76;34.97;98638.59;5017128;28;20451;-70
2021/06/27 10:59:53;;;;;;;5.47;5.07;;;;;;;28.62;35.90;98636.38;5012471;28;20132;-70
2021/06/27 11:02:39;;;;;;;5.65;5.32;;;;;;;28.66;36.10;98637.75;5015561;28;20105;-70
2021/06/27 11:05:44;;;;;;;6.75;6.25;;;;;;;28.57;36.32;98622.75;5003359;28;20107;-69
2021/06/27 11:08:12;;;;;;;5.88;5.47;;;;;;;28.69;38.15;98626.91;4932862;29;20132;-69
2021/06/27 11:10:38;;;;;;;5.55;5.20;;;;;;;28.88;37.51;98624.25;4933150;29;20051;-68
2021/06/27 11:13:04;;;;;;;6.28;5.88;;;;;;;28.87;37.41;98630.50;4934098;29;20044;-68
2021/06/27 11:15:30;;;;;;;6.95;6.43;;;;;;;28.61;36.58;98616.22;4933814;29;20031;-69
2021/06/27 11:17:57;;;;;;;5.75;5.35;;;;;;;28.98;35.96;98622.38;4933109;29;20035;-68
2021/06/27 11:20:23;;;;;;;5.75;5.40;;;;;;;28.89;35.57;98625.09;4934143;29;20102;-68
2021/06/27 11:22:57;;;;;;;5.60;5.20;;;;;;;29.17;35.22;98618.00;4931794;29;20130;-68
2021/06/27 11:25:36;;;;;;;5.75;5.40;;;;;;;28.82;35.62;98618.69;4933494;29;20385;-68
2021/06/27 11:28:22;;;;;;;5.47;5.18;;;;;;;29.08;34.78;98609.16;4932365;29;20247;-69
2021/06/27 11:30:53;;;;;;;5.63;5.22;;;;;;;29.25;33.88;98611.00;4933980;29;20124;-69
2021/06/27 11:33:24;;;;;;;8.55;7.95;;;;;;;29.35;33.98;98614.47;4932500;29;20067;-69
2021/06/27 11:35:55;;;;;;;5.63;5.32;;;;;;;29.36;34.51;98616.16;4933302;29;20039;-69
2021/06/27 11:38:42;;;;;;;5.63;5.22;;;;;;;29.63;34.59;98612.63;4956168;28;20046;-69